Wednesday, September 19, 2018, 3:12 PM EDT
Back to Local

KAGC, Pittsburgh Allegheny Cty.

Location: West Mifflin, PA, United States Lat: 40.35
Local Time: 3:12 PM EDT (19:12 GMT) Lon: -79.917
Time Zone: US/Eastern Elev: 1253 ft

Show me the last for .
Show Decoded

2018-09-19 14:53 METAR KAGC 191853Z 10SM CLR 27/14 A3003 RMK AO2 SLP163 T02670144 =
2018-09-19 13:53 METAR KAGC 191753Z 31005KT 10SM CLR 26/16 A3003 RMK AO2 SLP165 60001 T02610156
                 10261 20189 58001 =
2018-09-19 12:53 METAR KAGC 191653Z VRB03KT 10SM CLR 25/15 A3004 RMK AO2 SLP167 T02500150 =
2018-09-19 11:53 METAR KAGC 191553Z VRB04KT 10SM BKN085 24/16 A3004 RMK AO2 SLP167 T02390161 =
2018-09-19 10:53 METAR KAGC 191453Z VRB04KT 10SM FEW100 23/18 A3004 RMK AO2 SLP166 60001
                 T02280183 51014 =
2018-09-19 09:53 METAR KAGC 191353Z 34004KT 10SM SCT120 21/18 A3003 RMK AO2 SLP165 T02060183 =
2018-09-19 09:02 METAR KAGC 191302Z 34003KT 3SM R28/1800VP6000FT BR SCT003 SCT008 19/19 A3002 RMK
                 AO2 T01940194 =
2018-09-19 08:55 METAR KAGC 191255Z VRB03KT 2SM R28/2600VP6000FT BR SCT003 SCT008 19/19 A3002 RMK
                 AO2 VIS 1 1/4V4 T01940189 =
2018-09-19 08:53 METAR KAGC 191253Z 01003KT 3SM R28/2600VP6000FT BR SCT003 BKN008 19/19 A3002 RMK
                 AO2 RAE10 SLP160 P0001 T01940189 =
2018-09-19 08:51 METAR KAGC 191251Z 36004KT 2SM R28/2600VP6000FT BR SCT004 BKN008 19/19 A3002 RMK
                 AO2 RAE10 P0001 =
2018-09-19 08:20 METAR KAGC 191220Z 34003KT 4SM R28/6000VP6000FT BR FEW006 SCT110 19/19 A3001 RMK
                 AO2 RAE10 P0001 T01890189 =
2018-09-19 08:05 METAR KAGC 191205Z 21004KT 4SM -RA BR FEW090 BKN110 19/19 A3000 RMK AO2 P0000
                 T01890189 =
2018-09-19 07:53 METAR KAGC 191153Z 15005KT 1 3/4SM R28/4000VP6000FT -RA BR FEW070 OVC100 19/19
                 A2999 RMK AO2 LTG DSNT SW RAB34 SLP153 P0002 60002 70002 T01890189 10211 20183
                 51018 =
2018-09-19 07:37 METAR KAGC 191137Z AUTO 32004KT 2SM -RA BR SCT002 BKN070 OVC100 19/19 A3002 RMK
                 AO2 LTG DSNT SW RAB34 P0000 T01890189 =
2018-09-19 07:21 METAR KAGC 191121Z AUTO 00000KT 1SM R28/3000VP6000FT BR VV002 19/19 A3001 RMK
                 AO2 T01890189 =
2018-09-19 06:53 METAR KAGC 191053Z AUTO VRB03KT 1/2SM R28/1400V4500FT FG VV001 19/19 A2999 RMK
                 AO2 SLP153 T01890189 =
2018-09-19 06:30 METAR KAGC 191030Z 34006KT 1/4SM R28/1000V2000FT FG BKN002 BKN044 19/19 A2998
                 RMK AO2 T01890189 =
2018-09-19 06:25 METAR KAGC 191025Z VRB05KT 1/2SM R28/1000VP6000FT FG BKN002 BKN044 19/19 A2998
                 RMK AO2 T01890189 =
2018-09-19 06:17 METAR KAGC 191017Z 34004KT 1 3/4SM R28/6000VP6000FT BR FEW003 SCT043 19/19 A2998
                 RMK AO2 T01890189 =
2018-09-19 06:08 METAR KAGC 191008Z 31003KT 2SM R28/5500VP6000FT BR CLR 19/19 A2997 RMK AO2
                 T01940189 =
2018-09-19 06:00 METAR KAGC 191000Z 33003KT 1SM R28/2200VP6000FT BR VV004 19/19 A2997 RMK AO2
                 T01890189 =
2018-09-19 05:57 METAR KAGC 190957Z 00000KT 1 3/4SM R28/2200VP6000FT BR CLR 19/19 A2996 RMK AO2
                 T01890189 =
2018-09-19 05:53 METAR KAGC 190953Z 00000KT 5SM BR CLR 19/19 A2996 RMK AO2 SLP141 T01940194 =
2018-09-19 05:10 METAR KAGC 190910Z 19004KT 3SM BR CLR 19/19 A2994 RMK AO2 T01890189 =
2018-09-19 05:00 METAR KAGC 190900Z 21005KT 1 1/4SM R28/5500VP6000FT BR CLR 18/18 A2994 RMK AO2
                 T01830183 =
2018-09-19 04:53 METAR KAGC 190853Z 19004KT 6SM BR CLR 18/18 A2994 RMK AO2 SLP134 T01830183 58001
                 =
2018-09-19 04:38 METAR KAGC 190838Z 18003KT 3/4SM R28/P6000FT BR CLR 19/19 A2994 RMK AO2
                 T01890189 =
2018-09-19 04:28 METAR KAGC 190828Z 17004KT 1 1/2SM BR CLR 19/19 A2994 RMK AO2 T01890189 =
2018-09-19 03:53 METAR KAGC 190753Z 00000KT 9SM CLR 21/20 A2994 RMK AO2 SLP134 T02060200 =
2018-09-19 02:53 METAR KAGC 190653Z 00000KT 5SM BR CLR 21/20 A2994 RMK AO2 SLP135 T02060200 =
2018-09-19 01:53 METAR KAGC 190553Z 30004KT 10SM CLR 21/20 A2994 RMK AO2 SLP135 T02060200 10250
                 20206 51001 =
2018-09-19 00:53 METAR KAGC 190453Z 29003KT 10SM CLR 21/20 A2994 RMK AO2 SLP134 T02110200
                 402670183 =
2018-09-18 23:53 METAR KAGC 190353Z 00000KT 10SM CLR 21/20 A2994 RMK AO2 SLP136 T02110200 =
2018-09-18 22:53 METAR KAGC 190253Z 00000KT 10SM CLR 23/20 A2994 RMK AO2 SLP133 T02330200 50004 =
2018-09-18 21:53 METAR KAGC 190153Z 17003KT 10SM FEW060 23/20 A2994 RMK AO2 SLP134 T02330200 =
2018-09-18 20:53 METAR KAGC 190053Z 00000KT 10SM FEW035 24/19 A2993 RMK AO2 SLP132 T02440194 =
2018-09-18 19:53 METAR KAGC 182353Z 00000KT 10SM FEW039 25/19 A2992 RMK AO2 SLP129 T02500194
                 10267 20239 53005 =
2018-09-18 18:53 METAR KAGC 182253Z 33003KT 10SM FEW038 BKN048 BKN070 25/20 A2991 RMK AO2 SLP125
                 T02500200 =
2018-09-18 17:53 METAR KAGC 182153Z 33003KT 10SM SCT040 26/20 A2990 RMK AO2 SLP122 T02560200 =
2018-09-18 16:53 METAR KAGC 182053Z VRB03KT 10SM FEW037 SCT046 SCT060 27/20 A2991 RMK AO2 SLP123
                 T02670200 56009 =
2018-09-18 15:53 METAR KAGC 181953Z 29005KT 10SM SCT027 SCT034 26/20 A2991 RMK AO2 SLP123
                 T02610200 =

Support USWX by starting your Amazon purchase here.